createdAt,value
2023-04-09T00:01:13.848Z,19.70
2023-04-09T00:03:43.100Z,19.30
2023-04-09T00:06:14.025Z,20.33
2023-04-09T00:08:45.079Z,20.90
2023-04-09T00:11:15.014Z,20.57
2023-04-09T00:13:43.633Z,21.80
2023-04-09T00:16:13.135Z,21.97
2023-04-09T00:18:42.372Z,22.17
2023-04-09T00:21:11.876Z,21.70
2023-04-09T00:23:41.335Z,20.33
2023-04-09T00:26:12.332Z,21.27
2023-04-09T00:28:41.768Z,21.47
2023-04-09T00:31:11.451Z,21.17
2023-04-09T00:33:40.445Z,22.43
2023-04-09T00:36:10.000Z,22.00
2023-04-09T00:38:41.202Z,20.90
2023-04-09T00:41:11.679Z,20.73
2023-04-09T00:43:41.037Z,21.47
2023-04-09T00:46:10.279Z,21.30
2023-04-09T00:48:39.413Z,21.83
2023-04-09T00:51:09.765Z,22.20
2023-04-09T00:53:38.870Z,21.57
2023-04-09T00:56:08.825Z,22.20
2023-04-09T00:58:39.658Z,22.10
2023-04-09T01:01:08.776Z,21.33
2023-04-09T01:03:38.362Z,22.47
2023-04-09T01:06:12.486Z,23.23
2023-04-09T01:08:56.144Z,22.30
2023-04-09T01:11:34.428Z,23.30
2023-04-09T01:14:10.749Z,22.23
2023-04-09T01:16:46.457Z,23.90
2023-04-09T01:19:26.612Z,23.93
2023-04-09T01:21:57.348Z,23.10
2023-04-09T01:24:39.628Z,24.40
2023-04-09T01:27:09.642Z,23.50
2023-04-09T01:30:06.836Z,22.97
2023-04-09T01:32:38.924Z,23.50
2023-04-09T01:35:10.487Z,24.30
2023-04-09T01:37:41.170Z,24.10
2023-04-09T01:40:11.572Z,25.07
2023-04-09T01:42:42.230Z,24.47
2023-04-09T01:45:14.421Z,25.07
2023-04-09T01:47:44.990Z,25.27
2023-04-09T01:50:14.697Z,25.83
2023-04-09T01:52:44.547Z,25.70
2023-04-09T01:55:14.155Z,25.17
2023-04-09T01:57:42.912Z,26.33
2023-04-09T02:00:15.300Z,25.97
2023-04-09T02:02:56.486Z,26.30
2023-04-09T02:05:29.202Z,27.67
2023-04-09T02:08:00.199Z,26.57
2023-04-09T02:10:32.783Z,26.93
2023-04-09T02:13:05.201Z,27.33
2023-04-09T02:15:38.368Z,26.47
2023-04-09T02:18:22.121Z,26.50
2023-04-09T02:20:51.852Z,27.63
2023-04-09T02:23:20.953Z,27.57
2023-04-09T02:25:50.245Z,27.50
2023-04-09T02:28:19.547Z,28.87
2023-04-09T02:30:50.254Z,27.10
2023-04-09T02:33:19.387Z,27.40
2023-04-09T02:35:48.907Z,29.43
2023-04-09T02:38:18.385Z,30.27
2023-04-09T02:40:47.346Z,27.50
2023-04-09T02:43:16.546Z,28.03
2023-04-09T02:45:46.053Z,26.90
2023-04-09T02:48:17.426Z,28.87
2023-04-09T02:50:47.170Z,28.53
2023-04-09T02:53:15.849Z,28.70
2023-04-09T02:55:44.729Z,29.77
2023-04-09T02:58:13.819Z,27.97
2023-04-09T03:00:46.105Z,29.13
2023-04-09T03:03:16.852Z,30.17
2023-04-09T03:05:46.314Z,28.17
2023-04-09T03:08:15.296Z,27.67
2023-04-09T03:10:45.356Z,29.03
2023-04-09T03:13:14.329Z,29.43
2023-04-09T03:15:43.558Z,30.80
2023-04-09T03:18:12.594Z,30.13
2023-04-09T03:20:43.394Z,29.70
2023-04-09T03:23:14.933Z,29.07
2023-04-09T03:25:48.811Z,29.97
2023-04-09T03:28:19.505Z,29.10
2023-04-09T03:30:53.767Z,28.93
2023-04-09T03:33:22.853Z,30.23
2023-04-09T03:35:57.783Z,29.73
2023-04-09T03:38:50.257Z,30.50
2023-04-09T03:41:40.416Z,31.53
2023-04-09T03:44:13.297Z,28.83
2023-04-09T03:46:59.934Z,29.67
2023-04-09T03:49:30.791Z,29.80
2023-04-09T03:52:10.389Z,31.17
2023-04-09T03:54:43.899Z,30.00
2023-04-09T03:57:20.778Z,30.00
2023-04-09T03:59:53.297Z,32.57
2023-04-09T04:02:27.567Z,31.03
2023-04-09T04:05:04.486Z,31.23
2023-04-09T04:07:44.238Z,32.07
2023-04-09T04:10:18.312Z,30.33
2023-04-09T04:12:49.430Z,31.83
2023-04-09T04:15:24.840Z,30.70
2023-04-09T04:17:58.053Z,30.97
2023-04-09T04:20:39.525Z,32.00
2023-04-09T04:23:14.206Z,31.50
2023-04-09T04:25:53.309Z,33.53
2023-04-09T04:28:30.289Z,34.10
2023-04-09T04:30:59.740Z,31.53
2023-04-09T04:33:31.065Z,31.33
2023-04-09T04:36:07.413Z,33.07
2023-04-09T04:38:45.166Z,33.10
2023-04-09T04:41:35.404Z,32.93
2023-04-09T04:44:12.126Z,31.37
2023-04-09T04:46:42.716Z,34.60
2023-04-09T04:49:13.431Z,30.93
2023-04-09T04:51:48.493Z,34.87
2023-04-09T04:54:20.046Z,33.70
2023-04-09T04:56:53.416Z,33.93
2023-04-09T04:59:42.457Z,32.77
2023-04-09T05:02:14.636Z,34.80
2023-04-09T05:04:56.973Z,34.13
2023-04-09T05:07:35.250Z,33.53
2023-04-09T05:10:06.910Z,33.73
2023-04-09T05:12:40.180Z,34.67
2023-04-09T05:15:11.034Z,37.63
2023-04-09T05:17:40.444Z,39.30
2023-04-09T05:20:11.251Z,35.60
2023-04-09T05:23:06.099Z,35.03
2023-04-09T05:25:43.183Z,33.93
2023-04-09T05:28:30.722Z,34.47
2023-04-09T05:31:13.525Z,34.90
2023-04-09T05:33:49.488Z,34.60
2023-04-09T05:36:24.395Z,33.57
2023-04-09T05:38:54.713Z,35.03
2023-04-09T05:41:25.519Z,35.10
2023-04-09T05:44:11.261Z,33.93
2023-04-09T05:46:42.045Z,35.67
2023-04-09T05:49:11.021Z,35.03
2023-04-09T05:51:43.572Z,35.10
2023-04-09T05:54:13.672Z,34.33
2023-04-09T05:56:44.721Z,36.10
2023-04-09T05:59:14.400Z,34.40
2023-04-09T06:01:43.288Z,34.73
2023-04-09T06:04:12.888Z,34.50
2023-04-09T06:06:42.069Z,34.50
2023-04-09T06:09:10.949Z,35.20
2023-04-09T06:11:40.239Z,34.70
2023-04-09T06:14:12.613Z,35.57
2023-04-09T06:16:41.665Z,35.63
2023-04-09T06:19:12.731Z,35.17
2023-04-09T06:21:42.895Z,37.80
2023-04-09T06:24:12.557Z,37.50
2023-04-09T06:26:42.021Z,39.97
2023-04-09T06:29:12.893Z,41.50
2023-04-09T06:31:42.422Z,44.47
2023-04-09T06:34:11.428Z,41.13
2023-04-09T06:36:41.042Z,43.37
2023-04-09T06:39:10.073Z,42.27
2023-04-09T06:41:39.526Z,39.53
2023-04-09T06:44:24.985Z,39.10
2023-04-09T06:46:56.362Z,38.77
2023-04-09T06:49:25.846Z,37.50
2023-04-09T06:51:55.796Z,37.37
2023-04-09T06:54:24.578Z,39.30
2023-04-09T06:56:53.578Z,38.43
2023-04-09T06:59:24.473Z,37.10
2023-04-09T07:01:54.648Z,38.53
2023-04-09T07:04:23.888Z,37.47
2023-04-09T07:06:53.395Z,37.77
2023-04-09T07:09:22.364Z,37.03
2023-04-09T07:11:52.777Z,35.60
2023-04-09T07:14:22.185Z,38.47
2023-04-09T07:16:53.360Z,37.27
2023-04-09T07:19:23.050Z,37.90
2023-04-09T07:21:52.062Z,38.20
2023-04-09T07:24:21.571Z,37.70
2023-04-09T07:26:52.516Z,37.50
2023-04-09T07:29:23.046Z,35.57
2023-04-09T07:31:54.108Z,35.87
2023-04-09T07:34:22.968Z,36.00
2023-04-09T07:36:54.295Z,37.47
2023-04-09T07:39:24.449Z,34.97
2023-04-09T07:41:53.336Z,35.60
2023-04-09T07:44:22.151Z,34.57
2023-04-09T07:46:51.330Z,35.30
2023-04-09T07:49:21.845Z,35.20
2023-04-09T07:51:51.201Z,36.87
2023-04-09T07:54:21.612Z,36.33
2023-04-09T07:56:51.299Z,35.37
2023-04-09T07:59:20.308Z,34.77
2023-04-09T08:01:49.317Z,34.37
2023-04-09T08:04:19.451Z,35.27
2023-04-09T08:06:51.123Z,33.77
2023-04-09T08:09:20.772Z,34.67
2023-04-09T08:11:51.247Z,34.37
2023-04-09T08:14:20.833Z,33.83
2023-04-09T08:16:50.649Z,34.50
2023-04-09T08:19:20.569Z,34.00
2023-04-09T08:21:52.495Z,32.90
2023-04-09T08:24:21.851Z,34.60
2023-04-09T08:26:51.095Z,36.40
2023-04-09T08:29:20.192Z,34.67
2023-04-09T08:31:48.930Z,36.57
2023-04-09T08:34:21.428Z,36.53
2023-04-09T08:36:52.177Z,36.23
2023-04-09T08:39:21.631Z,37.07
2023-04-09T08:41:51.201Z,35.33
2023-04-09T08:44:22.681Z,34.50
2023-04-09T08:46:51.712Z,34.30
2023-04-09T08:49:20.391Z,33.83
2023-04-09T08:51:51.115Z,32.87
2023-04-09T08:54:20.595Z,34.90
2023-04-09T08:56:49.819Z,32.93
2023-04-09T08:59:20.063Z,32.67
2023-04-09T09:01:54.749Z,33.13
2023-04-09T09:04:23.966Z,33.03
2023-04-09T09:06:56.593Z,32.30
2023-04-09T09:09:27.707Z,31.83
2023-04-09T09:11:58.196Z,30.80
2023-04-09T09:14:28.328Z,33.93
2023-04-09T09:17:08.819Z,32.57
2023-04-09T09:19:38.347Z,32.77
2023-04-09T09:22:09.716Z,31.50
2023-04-09T09:24:50.286Z,31.70
2023-04-09T09:27:34.537Z,33.33
2023-04-09T09:30:03.743Z,31.60
2023-04-09T09:32:33.257Z,32.87
2023-04-09T09:35:07.466Z,32.50
2023-04-09T09:37:38.338Z,32.60
2023-04-09T09:40:09.285Z,32.80
2023-04-09T09:42:38.228Z,33.23
2023-04-09T09:45:20.763Z,32.33
2023-04-09T09:47:51.441Z,31.73
2023-04-09T09:50:21.585Z,34.13
2023-04-09T09:52:56.322Z,32.83
2023-04-09T09:55:29.208Z,32.57
2023-04-09T09:58:00.343Z,31.97
2023-04-09T10:00:31.233Z,32.47
2023-04-09T10:03:12.704Z,33.47
2023-04-09T10:05:43.354Z,33.87
2023-04-09T10:08:15.381Z,34.70
2023-04-09T10:10:45.214Z,34.83
2023-04-09T10:13:18.690Z,36.23
2023-04-09T10:15:48.256Z,35.07
2023-04-09T10:18:18.635Z,32.87
2023-04-09T10:20:57.210Z,31.67
2023-04-09T10:23:35.541Z,31.43
2023-04-09T10:26:04.818Z,32.33
2023-04-09T10:28:34.097Z,30.30
2023-04-09T10:31:03.226Z,31.67
2023-04-09T10:33:32.360Z,29.27
2023-04-09T10:36:06.019Z,29.63
2023-04-09T10:38:38.409Z,29.87
2023-04-09T10:41:17.959Z,29.63
2023-04-09T10:43:49.894Z,27.93
2023-04-09T10:46:37.472Z,28.53
2023-04-09T10:49:14.111Z,28.47
2023-04-09T10:51:45.522Z,29.30
2023-04-09T10:54:50.143Z,29.43
2023-04-09T10:57:24.757Z,27.80
2023-04-09T10:59:56.123Z,27.57
2023-04-09T11:03:08.734Z,28.73
2023-04-09T11:05:39.715Z,26.53
2023-04-09T11:08:13.228Z,28.40
2023-04-09T11:10:45.166Z,28.03
2023-04-09T11:13:14.670Z,27.60
2023-04-09T11:15:43.965Z,26.40
2023-04-09T11:18:16.696Z,28.27
2023-04-09T11:20:45.533Z,25.07
2023-04-09T11:23:15.676Z,28.90
2023-04-09T11:25:53.794Z,28.17
2023-04-09T11:28:23.314Z,29.57
2023-04-09T11:30:53.585Z,28.80
2023-04-09T11:33:22.914Z,29.60
2023-04-09T11:35:53.581Z,29.43
2023-04-09T11:38:22.415Z,30.03
2023-04-09T11:40:59.335Z,28.47
2023-04-09T11:43:29.092Z,28.47
2023-04-09T11:45:58.521Z,29.60
2023-04-09T11:48:27.768Z,29.60
2023-04-09T11:50:57.255Z,28.93
2023-04-09T11:53:32.083Z,28.10
2023-04-09T11:56:03.286Z,28.27
2023-04-09T11:58:32.605Z,28.17
2023-04-09T12:01:01.982Z,26.73
2023-04-09T12:03:34.119Z,26.53
2023-04-09T12:06:04.478Z,27.50
2023-04-09T12:08:35.711Z,25.70
2023-04-09T12:11:24.361Z,26.80
2023-04-09T12:14:01.743Z,26.23
2023-04-09T12:16:37.804Z,26.87
2023-04-09T12:19:09.637Z,26.10
2023-04-09T12:21:49.482Z,25.03
2023-04-09T12:24:20.303Z,26.80
2023-04-09T12:26:51.969Z,26.20
2023-04-09T12:29:22.914Z,27.27
2023-04-09T12:31:52.141Z,26.83
2023-04-09T12:34:21.108Z,25.07
2023-04-09T12:36:50.103Z,25.73
2023-04-09T12:39:21.325Z,25.57
2023-04-09T12:41:54.723Z,25.77
2023-04-09T12:44:23.732Z,26.73
2023-04-09T12:46:52.700Z,24.97
2023-04-09T12:49:22.313Z,25.90
2023-04-09T12:51:51.610Z,26.97
2023-04-09T12:54:21.230Z,26.87
2023-04-09T12:56:52.150Z,26.27
2023-04-09T12:59:21.756Z,27.07
2023-04-09T13:01:51.131Z,26.50
2023-04-09T13:04:20.710Z,27.40
2023-04-09T13:06:50.694Z,27.50
2023-04-09T13:09:19.775Z,26.83
2023-04-09T13:11:48.772Z,26.20
2023-04-09T13:14:19.152Z,27.30
2023-04-09T13:16:48.489Z,27.37
2023-04-09T13:19:18.113Z,27.83
2023-04-09T13:21:47.919Z,27.93
2023-04-09T13:24:17.197Z,27.67
2023-04-09T13:26:46.384Z,25.57
2023-04-09T13:29:15.365Z,26.50
2023-04-09T13:31:46.150Z,28.50
2023-04-09T13:34:15.221Z,27.37
2023-04-09T13:36:44.329Z,27.30
2023-04-09T13:39:13.256Z,26.57
2023-04-09T13:41:42.158Z,28.03
2023-04-09T13:44:11.696Z,28.27
2023-04-09T13:46:40.760Z,28.67
2023-04-09T13:49:11.583Z,29.03
2023-04-09T13:51:40.836Z,28.63
2023-04-09T13:54:11.665Z,29.47
2023-04-09T13:56:40.858Z,30.37
2023-04-09T13:59:10.030Z,28.90
2023-04-09T14:01:39.295Z,29.33
2023-04-09T14:04:08.570Z,30.33
2023-04-09T14:06:39.543Z,29.53
2023-04-09T14:09:09.022Z,28.80
2023-04-09T14:11:38.582Z,29.30
2023-04-09T14:14:07.993Z,29.27
2023-04-09T14:16:37.391Z,29.50
2023-04-09T14:19:07.029Z,29.30
2023-04-09T14:21:36.901Z,28.03
2023-04-09T14:24:08.378Z,29.80
2023-04-09T14:26:38.086Z,30.77
2023-04-09T14:29:07.155Z,28.73
2023-04-09T14:31:36.048Z,30.93
2023-04-09T14:34:05.160Z,31.43
2023-04-09T14:36:34.160Z,31.43
2023-04-09T14:39:03.122Z,31.27
2023-04-09T14:41:37.280Z,31.20
2023-04-09T14:44:06.501Z,31.67
2023-04-09T14:46:35.650Z,33.03
2023-04-09T14:49:05.074Z,32.90
2023-04-09T14:51:34.761Z,32.00
2023-04-09T14:54:03.548Z,32.43
2023-04-09T14:56:34.047Z,33.97
2023-04-09T14:59:04.146Z,32.53
2023-04-09T15:01:34.308Z,32.23
2023-04-09T15:04:03.843Z,31.77
2023-04-09T15:06:33.429Z,34.57
2023-04-09T15:09:02.877Z,33.33
2023-04-09T15:11:33.830Z,34.00
2023-04-09T15:14:03.723Z,34.83
2023-04-09T15:16:37.812Z,33.50
2023-04-09T15:19:07.874Z,35.87
2023-04-09T15:21:37.270Z,35.53
2023-04-09T15:24:06.428Z,38.10
2023-04-09T15:26:38.068Z,35.17
2023-04-09T15:29:09.444Z,34.80
2023-04-09T15:31:41.314Z,35.97
2023-04-09T15:34:11.034Z,34.70
2023-04-09T15:36:40.832Z,35.93
2023-04-09T15:39:10.256Z,37.50
2023-04-09T15:41:41.321Z,36.53
2023-04-09T15:44:10.732Z,35.20
2023-04-09T15:46:40.598Z,36.20
2023-04-09T15:49:09.797Z,35.90
2023-04-09T15:51:39.351Z,37.10
2023-04-09T15:54:09.965Z,38.03
2023-04-09T15:56:41.684Z,38.07
2023-04-09T15:59:11.341Z,38.37
2023-04-09T16:01:40.572Z,37.30
2023-04-09T16:04:11.197Z,37.20
2023-04-09T16:06:40.704Z,37.73
2023-04-09T16:09:09.785Z,37.10
2023-04-09T16:11:46.133Z,37.93
2023-04-09T16:14:15.069Z,36.80
2023-04-09T16:16:47.970Z,37.93
2023-04-09T16:19:17.919Z,38.13
2023-04-09T16:21:47.677Z,37.63
2023-04-09T16:24:17.643Z,37.37
2023-04-09T16:26:49.202Z,38.70
2023-04-09T16:29:18.620Z,38.40
2023-04-09T16:31:48.032Z,38.77
2023-04-09T16:34:17.444Z,38.17
2023-04-09T16:36:47.404Z,37.03
2023-04-09T16:39:16.951Z,38.77
2023-04-09T16:41:47.931Z,38.73
2023-04-09T16:44:17.115Z,38.93
2023-04-09T16:46:46.108Z,40.13
2023-04-09T16:49:16.142Z,40.17
2023-04-09T16:51:46.533Z,39.87
2023-04-09T16:54:16.402Z,38.77
2023-04-09T16:56:49.153Z,40.87
2023-04-09T16:59:21.747Z,41.20
2023-04-09T17:01:52.318Z,39.47
2023-04-09T17:04:21.799Z,39.80
2023-04-09T17:06:52.148Z,41.37
2023-04-09T17:09:21.206Z,39.60
2023-04-09T17:11:53.418Z,40.80
2023-04-09T17:14:22.705Z,39.43
2023-04-09T17:16:53.171Z,43.17
2023-04-09T17:19:22.552Z,41.43
2023-04-09T17:21:52.271Z,42.90
2023-04-09T17:24:21.551Z,44.97
2023-04-09T17:26:52.401Z,44.83
2023-04-09T17:29:21.810Z,43.23
2023-04-09T17:31:53.412Z,45.80
2023-04-09T17:34:22.478Z,44.33
2023-04-09T17:36:57.113Z,43.03
2023-04-09T17:39:26.863Z,39.33
2023-04-09T17:41:58.788Z,42.57
2023-04-09T17:44:28.350Z,42.40
2023-04-09T17:46:57.641Z,42.03
2023-04-09T17:49:27.656Z,43.10
2023-04-09T17:51:58.301Z,44.37
2023-04-09T17:54:28.814Z,45.07
2023-04-09T17:56:59.707Z,45.17
2023-04-09T17:59:29.405Z,46.53
2023-04-09T18:01:59.255Z,49.60
2023-04-09T18:04:29.012Z,51.40
2023-04-09T18:06:58.214Z,54.23
2023-04-09T18:09:28.134Z,50.77
2023-04-09T18:11:58.155Z,50.87
2023-04-09T18:14:31.551Z,50.03
2023-04-09T18:17:01.484Z,54.77
2023-04-09T18:19:30.511Z,52.93
2023-04-09T18:21:59.619Z,47.43
2023-04-09T18:24:29.182Z,46.37
2023-04-09T18:26:59.390Z,47.70
2023-04-09T18:29:30.565Z,44.63
2023-04-09T18:32:00.644Z,44.97
2023-04-09T18:34:30.044Z,46.00
2023-04-09T18:36:59.402Z,46.07
2023-04-09T18:39:28.995Z,47.33
2023-04-09T18:41:58.337Z,46.07
2023-04-09T18:44:29.402Z,45.33
2023-04-09T18:47:00.066Z,47.43
2023-04-09T18:49:29.207Z,47.50
2023-04-09T18:51:58.474Z,50.07
2023-04-09T18:54:28.003Z,60.53
2023-04-09T18:56:57.530Z,59.43
2023-04-09T18:59:26.909Z,50.13
2023-04-09T19:01:59.151Z,47.03
2023-04-09T19:04:28.781Z,46.77
2023-04-09T19:06:58.353Z,49.57
2023-04-09T19:09:28.021Z,46.43
2023-04-09T19:11:58.265Z,50.03
2023-04-09T19:14:28.536Z,50.30
2023-04-09T19:17:00.214Z,49.70
2023-04-09T19:19:32.744Z,52.40
2023-04-09T19:22:02.418Z,56.00
2023-04-09T19:24:34.145Z,55.90
2023-04-09T19:27:08.376Z,53.63
2023-04-09T19:29:37.684Z,52.00
2023-04-09T19:32:09.866Z,49.50
2023-04-09T19:34:39.264Z,49.00
2023-04-09T19:37:08.232Z,47.97
2023-04-09T19:39:37.978Z,48.40
2023-04-09T19:42:06.620Z,47.33
2023-04-09T19:44:35.924Z,45.53
2023-04-09T19:47:05.631Z,44.20
2023-04-09T19:49:36.390Z,43.53
2023-04-09T19:52:07.432Z,43.20
2023-04-09T19:54:37.068Z,41.17
2023-04-09T19:57:06.095Z,39.57
2023-04-09T19:59:40.324Z,40.87
2023-04-09T20:02:09.840Z,40.90
2023-04-09T20:04:40.942Z,42.30
2023-04-09T20:07:10.715Z,42.97
2023-04-09T20:09:41.863Z,42.27
2023-04-09T20:12:13.671Z,40.07
2023-04-09T20:14:43.264Z,42.57
2023-04-09T20:17:12.785Z,41.97
2023-04-09T20:19:43.399Z,42.33
2023-04-09T20:22:12.946Z,46.47
2023-04-09T20:24:41.932Z,47.33
2023-04-09T20:27:11.690Z,47.80
2023-04-09T20:29:41.024Z,46.87
2023-04-09T20:32:10.130Z,46.70
2023-04-09T20:34:38.976Z,46.10
2023-04-09T20:37:09.814Z,46.20
2023-04-09T20:39:38.727Z,48.40
2023-04-09T20:42:08.384Z,47.13
2023-04-09T20:44:38.526Z,45.17
2023-04-09T20:47:08.479Z,46.03
2023-04-09T20:49:37.821Z,48.27
2023-04-09T20:52:09.391Z,50.63
2023-04-09T20:54:40.929Z,53.00
2023-04-09T20:57:12.092Z,61.07
2023-04-09T20:59:42.724Z,58.33
2023-04-09T21:02:14.331Z,56.03
2023-04-09T21:04:43.529Z,55.37
2023-04-09T21:07:13.195Z,53.60
2023-04-09T21:09:44.524Z,52.00
2023-04-09T21:12:13.661Z,54.23
2023-04-09T21:14:42.594Z,60.77
2023-04-09T21:17:11.563Z,59.90
2023-04-09T21:19:41.355Z,60.30
2023-04-09T21:22:10.473Z,61.13
2023-04-09T21:24:39.584Z,59.17
2023-04-09T21:27:11.498Z,57.23
2023-04-09T21:29:40.832Z,61.57
2023-04-09T21:32:10.273Z,61.60
2023-04-09T21:34:39.851Z,60.43
2023-04-09T21:37:10.619Z,58.83
2023-04-09T21:39:40.132Z,66.40
2023-04-09T21:42:11.245Z,65.93
2023-04-09T21:44:40.415Z,64.83
2023-04-09T21:47:09.807Z,61.83
2023-04-09T21:49:40.936Z,66.33
2023-04-09T21:52:15.091Z,65.93
2023-04-09T21:54:45.280Z,62.10
2023-04-09T21:57:16.761Z,65.07
2023-04-09T21:59:46.238Z,63.77
2023-04-09T22:02:15.406Z,61.60
2023-04-09T22:04:45.028Z,62.27
2023-04-09T22:07:15.183Z,66.70
2023-04-09T22:09:44.103Z,72.27
2023-04-09T22:12:14.791Z,73.73
2023-04-09T22:14:43.963Z,79.63
2023-04-09T22:17:13.074Z,72.80
2023-04-09T22:19:42.624Z,76.07
2023-04-09T22:22:13.781Z,75.93
2023-04-09T22:24:42.993Z,75.57
2023-04-09T22:27:12.468Z,70.87
2023-04-09T22:29:46.003Z,70.53
2023-04-09T22:32:15.605Z,69.70
2023-04-09T22:34:44.616Z,61.57
2023-04-09T22:37:13.175Z,60.03
2023-04-09T22:39:41.892Z,57.40
2023-04-09T22:42:11.502Z,51.73
2023-04-09T22:44:43.993Z,54.00
2023-04-09T22:47:13.337Z,50.47
2023-04-09T22:49:42.346Z,55.17
2023-04-09T22:52:11.777Z,54.63
2023-04-09T22:54:43.390Z,51.33
2023-04-09T22:57:12.388Z,47.00
2023-04-09T22:59:42.947Z,52.07
2023-04-09T23:02:12.270Z,44.73
2023-04-09T23:04:42.781Z,47.83
2023-04-09T23:07:12.352Z,45.73
2023-04-09T23:09:41.598Z,44.33
2023-04-09T23:12:10.640Z,42.90
2023-04-09T23:14:39.316Z,40.50
2023-04-09T23:17:10.020Z,44.80
2023-04-09T23:19:38.701Z,46.83
2023-04-09T23:22:08.302Z,46.70
2023-04-09T23:24:37.010Z,49.47
2023-04-09T23:27:05.995Z,42.97
2023-04-09T23:29:35.161Z,44.80
2023-04-09T23:32:04.604Z,47.27
2023-04-09T23:34:35.400Z,46.23
2023-04-09T23:37:04.447Z,45.50
2023-04-09T23:39:35.074Z,48.20
2023-04-09T23:42:04.150Z,49.60
2023-04-09T23:44:34.378Z,45.43
2023-04-09T23:47:06.193Z,51.90
2023-04-09T23:49:36.488Z,51.23
2023-04-09T23:52:05.747Z,46.37
2023-04-09T23:54:34.716Z,47.93
2023-04-09T23:57:03.835Z,54.33
2023-04-09T23:59:36.579Z,48.80
